sensor_id;sensor_type;location;lat;lon;timestamp;temperature;humidity
16511;DHT22;8368;48.772;8.754;2023-08-12T00:00:18;16.10;99.90
16511;DHT22;8368;48.772;8.754;2023-08-12T00:02:45;16.10;99.90
16511;DHT22;8368;48.772;8.754;2023-08-12T00:05:11;16.10;99.90
16511;DHT22;8368;48.772;8.754;2023-08-12T00:07:38;16.10;99.90
16511;DHT22;8368;48.772;8.754;2023-08-12T00:10:06;16.00;99.90
16511;DHT22;8368;48.772;8.754;2023-08-12T00:12:33;16.00;99.90
16511;DHT22;8368;48.772;8.754;2023-08-12T00:14:59;16.00;99.90
16511;DHT22;8368;48.772;8.754;2023-08-12T00:17:25;16.00;99.90
16511;DHT22;8368;48.772;8.754;2023-08-12T00:19:51;16.00;99.90
16511;DHT22;8368;48.772;8.754;2023-08-12T00:22:16;16.00;99.90
16511;DHT22;8368;48.772;8.754;2023-08-12T00:24:42;16.00;99.90
16511;DHT22;8368;48.772;8.754;2023-08-12T00:27:08;16.00;99.90
16511;DHT22;8368;48.772;8.754;2023-08-12T00:29:34;16.00;99.90
16511;DHT22;8368;48.772;8.754;2023-08-12T00:32:00;16.00;99.90
16511;DHT22;8368;48.772;8.754;2023-08-12T00:34:26;16.00;99.90
16511;DHT22;8368;48.772;8.754;2023-08-12T00:36:51;16.00;99.90
16511;DHT22;8368;48.772;8.754;2023-08-12T00:39:17;16.00;99.90
16511;DHT22;8368;48.772;8.754;2023-08-12T00:41:42;16.00;99.90
16511;DHT22;8368;48.772;8.754;2023-08-12T00:44:08;16.00;99.90
16511;DHT22;8368;48.772;8.754;2023-08-12T00:46:34;16.00;99.90
16511;DHT22;8368;48.772;8.754;2023-08-12T00:49:00;16.00;99.90
16511;DHT22;8368;48.772;8.754;2023-08-12T00:51:26;16.10;99.90
16511;DHT22;8368;48.772;8.754;2023-08-12T00:53:52;16.10;99.90
16511;DHT22;8368;48.772;8.754;2023-08-12T00:56:20;16.10;99.90
16511;DHT22;8368;48.772;8.754;2023-08-12T00:58:46;16.10;99.90
16511;DHT22;8368;48.772;8.754;2023-08-12T01:01:12;16.10;99.90
16511;DHT22;8368;48.772;8.754;2023-08-12T01:03:38;16.10;99.90
16511;DHT22;8368;48.772;8.754;2023-08-12T01:06:04;16.20;99.90
16511;DHT22;8368;48.772;8.754;2023-08-12T01:08:31;16.10;99.90
16511;DHT22;8368;48.772;8.754;2023-08-12T01:16:31;16.20;99.90
16511;DHT22;8368;48.772;8.754;2023-08-12T01:18:58;16.20;99.90
16511;DHT22;8368;48.772;8.754;2023-08-12T01:21:27;16.30;99.90
16511;DHT22;8368;48.772;8.754;2023-08-12T01:23:54;16.30;99.90
16511;DHT22;8368;48.772;8.754;2023-08-12T01:26:20;16.30;99.90
16511;DHT22;8368;48.772;8.754;2023-08-12T01:28:45;16.30;99.90
16511;DHT22;8368;48.772;8.754;2023-08-12T01:31:45;16.40;99.90
16511;DHT22;8368;48.772;8.754;2023-08-12T01:34:42;16.40;99.90
16511;DHT22;8368;48.772;8.754;2023-08-12T01:37:11;16.40;99.90
16511;DHT22;8368;48.772;8.754;2023-08-12T01:39:40;16.40;99.90
16511;DHT22;8368;48.772;8.754;2023-08-12T01:42:06;16.50;99.90
16511;DHT22;8368;48.772;8.754;2023-08-12T01:44:32;16.50;99.90
16511;DHT22;8368;48.772;8.754;2023-08-12T01:46:59;16.50;99.90
16511;DHT22;8368;48.772;8.754;2023-08-12T01:49:25;16.50;99.90
16511;DHT22;8368;48.772;8.754;2023-08-12T01:51:50;16.60;99.90
16511;DHT22;8368;48.772;8.754;2023-08-12T01:54:16;16.60;99.90
16511;DHT22;8368;48.772;8.754;2023-08-12T01:56:41;16.60;99.90
16511;DHT22;8368;48.772;8.754;2023-08-12T01:59:07;16.60;99.90
16511;DHT22;8368;48.772;8.754;2023-08-12T02:01:32;16.70;99.90
16511;DHT22;8368;48.772;8.754;2023-08-12T02:03:58;16.70;99.90
16511;DHT22;8368;48.772;8.754;2023-08-12T02:06:23;16.70;99.90
16511;DHT22;8368;48.772;8.754;2023-08-12T02:08:49;16.80;99.90
16511;DHT22;8368;48.772;8.754;2023-08-12T02:11:15;16.70;99.90
16511;DHT22;8368;48.772;8.754;2023-08-12T02:13:41;16.80;99.90
16511;DHT22;8368;48.772;8.754;2023-08-12T02:16:06;16.80;99.90
16511;DHT22;8368;48.772;8.754;2023-08-12T02:18:32;16.80;99.90
16511;DHT22;8368;48.772;8.754;2023-08-12T02:20:57;16.80;99.90
16511;DHT22;8368;48.772;8.754;2023-08-12T02:23:23;16.80;99.90
16511;DHT22;8368;48.772;8.754;2023-08-12T02:25:48;16.90;99.90
16511;DHT22;8368;48.772;8.754;2023-08-12T02:28:14;16.90;99.90
16511;DHT22;8368;48.772;8.754;2023-08-12T02:30:42;16.90;99.90
16511;DHT22;8368;48.772;8.754;2023-08-12T02:33:08;16.90;99.90
16511;DHT22;8368;48.772;8.754;2023-08-12T02:35:33;16.90;99.90
16511;DHT22;8368;48.772;8.754;2023-08-12T02:37:59;17.00;99.90
16511;DHT22;8368;48.772;8.754;2023-08-12T02:40:24;17.00;99.90
16511;DHT22;8368;48.772;8.754;2023-08-12T02:42:50;17.00;99.90
16511;DHT22;8368;48.772;8.754;2023-08-12T02:45:16;17.00;99.90
16511;DHT22;8368;48.772;8.754;2023-08-12T02:47:41;17.00;99.90
16511;DHT22;8368;48.772;8.754;2023-08-12T02:50:07;17.00;99.90
16511;DHT22;8368;48.772;8.754;2023-08-12T02:52:33;17.00;99.90
16511;DHT22;8368;48.772;8.754;2023-08-12T02:54:58;17.00;99.90
16511;DHT22;8368;48.772;8.754;2023-08-12T02:57:24;17.00;99.90
16511;DHT22;8368;48.772;8.754;2023-08-12T02:59:49;17.10;99.90
16511;DHT22;8368;48.772;8.754;2023-08-12T03:02:15;17.10;99.90
16511;DHT22;8368;48.772;8.754;2023-08-12T03:04:41;17.10;99.90
16511;DHT22;8368;48.772;8.754;2023-08-12T03:07:07;17.10;99.90
16511;DHT22;8368;48.772;8.754;2023-08-12T03:09:32;17.10;99.90
16511;DHT22;8368;48.772;8.754;2023-08-12T03:11:58;17.10;99.90
16511;DHT22;8368;48.772;8.754;2023-08-12T03:14:28;17.10;99.90
16511;DHT22;8368;48.772;8.754;2023-08-12T03:16:54;17.20;99.90
16511;DHT22;8368;48.772;8.754;2023-08-12T03:19:19;17.20;99.90
16511;DHT22;8368;48.772;8.754;2023-08-12T03:21:45;17.20;99.90
16511;DHT22;8368;48.772;8.754;2023-08-12T03:24:10;17.20;99.90
16511;DHT22;8368;48.772;8.754;2023-08-12T03:26:36;17.30;99.90
16511;DHT22;8368;48.772;8.754;2023-08-12T03:29:02;17.30;99.90
16511;DHT22;8368;48.772;8.754;2023-08-12T03:31:27;17.30;99.90
16511;DHT22;8368;48.772;8.754;2023-08-12T03:33:53;17.30;99.90
16511;DHT22;8368;48.772;8.754;2023-08-12T03:36:18;17.30;99.90
16511;DHT22;8368;48.772;8.754;2023-08-12T03:38:44;17.40;99.90
16511;DHT22;8368;48.772;8.754;2023-08-12T03:41:09;17.40;99.90
16511;DHT22;8368;48.772;8.754;2023-08-12T03:43:35;17.40;99.90
16511;DHT22;8368;48.772;8.754;2023-08-12T03:46:01;17.40;99.90
16511;DHT22;8368;48.772;8.754;2023-08-12T03:48:27;17.40;99.90
16511;DHT22;8368;48.772;8.754;2023-08-12T03:50:53;17.40;99.90
16511;DHT22;8368;48.772;8.754;2023-08-12T03:53:18;17.40;99.90
16511;DHT22;8368;48.772;8.754;2023-08-12T03:55:44;17.40;99.90
16511;DHT22;8368;48.772;8.754;2023-08-12T03:58:09;17.40;99.90
16511;DHT22;8368;48.772;8.754;2023-08-12T04:00:35;17.40;99.90
16511;DHT22;8368;48.772;8.754;2023-08-12T04:03:00;17.50;99.90
16511;DHT22;8368;48.772;8.754;2023-08-12T04:05:26;17.50;99.90
16511;DHT22;8368;48.772;8.754;2023-08-12T04:07:51;17.50;99.90
16511;DHT22;8368;48.772;8.754;2023-08-12T04:10:17;17.50;99.90
16511;DHT22;8368;48.772;8.754;2023-08-12T04:12:43;17.50;99.90
16511;DHT22;8368;48.772;8.754;2023-08-12T04:15:09;17.40;99.90
16511;DHT22;8368;48.772;8.754;2023-08-12T04:17:34;17.40;99.90
16511;DHT22;8368;48.772;8.754;2023-08-12T04:20:00;17.40;99.90
16511;DHT22;8368;48.772;8.754;2023-08-12T04:22:25;17.50;99.90
16511;DHT22;8368;48.772;8.754;2023-08-12T04:24:51;17.50;99.90
16511;DHT22;8368;48.772;8.754;2023-08-12T04:27:17;17.50;99.90
16511;DHT22;8368;48.772;8.754;2023-08-12T04:29:42;17.50;99.90
16511;DHT22;8368;48.772;8.754;2023-08-12T04:32:08;17.50;99.90
16511;DHT22;8368;48.772;8.754;2023-08-12T04:34:34;17.50;99.90
16511;DHT22;8368;48.772;8.754;2023-08-12T04:36:59;17.50;99.90
16511;DHT22;8368;48.772;8.754;2023-08-12T04:39:25;17.50;99.90
16511;DHT22;8368;48.772;8.754;2023-08-12T04:41:51;17.60;99.90
16511;DHT22;8368;48.772;8.754;2023-08-12T04:44:16;17.60;99.90
16511;DHT22;8368;48.772;8.754;2023-08-12T04:46:42;17.70;99.90
16511;DHT22;8368;48.772;8.754;2023-08-12T04:49:07;17.70;99.90
16511;DHT22;8368;48.772;8.754;2023-08-12T04:51:33;17.70;99.90
16511;DHT22;8368;48.772;8.754;2023-08-12T04:53:59;17.70;99.90
16511;DHT22;8368;48.772;8.754;2023-08-12T04:56:27;17.70;99.90
16511;DHT22;8368;48.772;8.754;2023-08-12T04:58:54;17.70;99.90
16511;DHT22;8368;48.772;8.754;2023-08-12T05:01:20;17.70;99.90
16511;DHT22;8368;48.772;8.754;2023-08-12T05:03:45;17.80;99.90
16511;DHT22;8368;48.772;8.754;2023-08-12T05:06:11;17.80;99.90
16511;DHT22;8368;48.772;8.754;2023-08-12T05:08:36;17.80;99.90
16511;DHT22;8368;48.772;8.754;2023-08-12T05:11:02;17.80;99.90
16511;DHT22;8368;48.772;8.754;2023-08-12T05:13:28;17.80;99.90
16511;DHT22;8368;48.772;8.754;2023-08-12T05:15:54;17.90;99.90
16511;DHT22;8368;48.772;8.754;2023-08-12T05:18:21;17.80;99.90
16511;DHT22;8368;48.772;8.754;2023-08-12T05:20:50;17.90;99.90
16511;DHT22;8368;48.772;8.754;2023-08-12T05:23:16;18.00;99.90
16511;DHT22;8368;48.772;8.754;2023-08-12T05:25:41;18.00;99.90
16511;DHT22;8368;48.772;8.754;2023-08-12T05:28:07;18.00;99.90
16511;DHT22;8368;48.772;8.754;2023-08-12T05:30:33;18.10;99.90
16511;DHT22;8368;48.772;8.754;2023-08-12T05:32:59;18.20;99.90
16511;DHT22;8368;48.772;8.754;2023-08-12T05:35:24;18.40;99.90
16511;DHT22;8368;48.772;8.754;2023-08-12T05:37:50;18.50;99.90
16511;DHT22;8368;48.772;8.754;2023-08-12T05:40:15;18.50;99.90
16511;DHT22;8368;48.772;8.754;2023-08-12T05:42:41;18.40;99.90
16511;DHT22;8368;48.772;8.754;2023-08-12T05:45:07;18.30;99.90
16511;DHT22;8368;48.772;8.754;2023-08-12T05:47:33;18.30;99.90
16511;DHT22;8368;48.772;8.754;2023-08-12T05:49:58;18.20;99.90
16511;DHT22;8368;48.772;8.754;2023-08-12T05:52:24;18.30;99.90
16511;DHT22;8368;48.772;8.754;2023-08-12T05:54:49;18.30;99.90
16511;DHT22;8368;48.772;8.754;2023-08-12T05:57:14;18.40;99.90
16511;DHT22;8368;48.772;8.754;2023-08-12T05:59:40;18.50;99.90
16511;DHT22;8368;48.772;8.754;2023-08-12T06:02:06;18.60;99.90
16511;DHT22;8368;48.772;8.754;2023-08-12T06:04:31;18.70;99.90
16511;DHT22;8368;48.772;8.754;2023-08-12T06:06:57;18.90;99.90
16511;DHT22;8368;48.772;8.754;2023-08-12T06:09:22;19.10;99.90
16511;DHT22;8368;48.772;8.754;2023-08-12T06:11:48;19.10;99.90
16511;DHT22;8368;48.772;8.754;2023-08-12T06:14:14;19.20;99.90
16511;DHT22;8368;48.772;8.754;2023-08-12T06:16:39;19.20;99.90
16511;DHT22;8368;48.772;8.754;2023-08-12T06:19:05;19.20;99.90
16511;DHT22;8368;48.772;8.754;2023-08-12T06:21:30;19.30;99.90
16511;DHT22;8368;48.772;8.754;2023-08-12T06:23:56;19.40;99.90
16511;DHT22;8368;48.772;8.754;2023-08-12T06:26:22;19.40;99.90
16511;DHT22;8368;48.772;8.754;2023-08-12T06:28:47;19.50;99.90
16511;DHT22;8368;48.772;8.754;2023-08-12T06:31:13;19.60;99.90
16511;DHT22;8368;48.772;8.754;2023-08-12T06:33:38;19.70;99.90
16511;DHT22;8368;48.772;8.754;2023-08-12T06:36:04;19.80;99.90
16511;DHT22;8368;48.772;8.754;2023-08-12T06:38:30;19.80;99.90
16511;DHT22;8368;48.772;8.754;2023-08-12T06:40:55;19.90;99.90
16511;DHT22;8368;48.772;8.754;2023-08-12T06:43:21;19.80;99.90
16511;DHT22;8368;48.772;8.754;2023-08-12T06:45:46;19.80;99.90
16511;DHT22;8368;48.772;8.754;2023-08-12T06:48:12;19.70;99.90
16511;DHT22;8368;48.772;8.754;2023-08-12T06:50:37;19.70;99.90
16511;DHT22;8368;48.772;8.754;2023-08-12T06:53:03;19.60;99.90
16511;DHT22;8368;48.772;8.754;2023-08-12T06:55:29;19.60;99.90
16511;DHT22;8368;48.772;8.754;2023-08-12T06:57:54;19.60;99.90
16511;DHT22;8368;48.772;8.754;2023-08-12T07:00:20;19.70;99.90
16511;DHT22;8368;48.772;8.754;2023-08-12T07:02:46;19.70;99.90
16511;DHT22;8368;48.772;8.754;2023-08-12T07:05:11;19.80;99.90
16511;DHT22;8368;48.772;8.754;2023-08-12T07:07:37;19.90;99.90
16511;DHT22;8368;48.772;8.754;2023-08-12T07:10:02;20.00;99.90
16511;DHT22;8368;48.772;8.754;2023-08-12T07:12:29;20.10;99.90
16511;DHT22;8368;48.772;8.754;2023-08-12T07:14:55;20.20;99.90
16511;DHT22;8368;48.772;8.754;2023-08-12T07:17:20;20.30;99.90
16511;DHT22;8368;48.772;8.754;2023-08-12T07:19:47;20.60;99.90
16511;DHT22;8368;48.772;8.754;2023-08-12T07:22:12;20.80;99.90
16511;DHT22;8368;48.772;8.754;2023-08-12T07:24:38;21.00;99.90
16511;DHT22;8368;48.772;8.754;2023-08-12T07:27:03;21.10;99.90
16511;DHT22;8368;48.772;8.754;2023-08-12T07:29:29;21.20;99.90
16511;DHT22;8368;48.772;8.754;2023-08-12T07:31:55;21.20;99.90
16511;DHT22;8368;48.772;8.754;2023-08-12T07:34:21;21.10;99.90
16511;DHT22;8368;48.772;8.754;2023-08-12T07:36:46;21.20;99.90
16511;DHT22;8368;48.772;8.754;2023-08-12T07:39:12;21.20;99.90
16511;DHT22;8368;48.772;8.754;2023-08-12T07:41:37;21.20;99.90
16511;DHT22;8368;48.772;8.754;2023-08-12T07:44:04;21.30;99.90
16511;DHT22;8368;48.772;8.754;2023-08-12T07:46:29;21.30;99.90
16511;DHT22;8368;48.772;8.754;2023-08-12T07:48:56;21.50;99.90
16511;DHT22;8368;48.772;8.754;2023-08-12T07:51:22;21.70;99.90
16511;DHT22;8368;48.772;8.754;2023-08-12T07:53:47;21.80;99.90
16511;DHT22;8368;48.772;8.754;2023-08-12T07:56:13;22.00;99.90
16511;DHT22;8368;48.772;8.754;2023-08-12T07:58:38;22.30;99.90
16511;DHT22;8368;48.772;8.754;2023-08-12T08:01:04;22.40;99.90
16511;DHT22;8368;48.772;8.754;2023-08-12T08:03:30;22.50;99.90
16511;DHT22;8368;48.772;8.754;2023-08-12T08:05:56;22.50;99.90
16511;DHT22;8368;48.772;8.754;2023-08-12T08:08:22;22.60;99.90
16511;DHT22;8368;48.772;8.754;2023-08-12T08:10:47;22.70;99.90
16511;DHT22;8368;48.772;8.754;2023-08-12T08:13:13;22.60;99.90
16511;DHT22;8368;48.772;8.754;2023-08-12T08:15:38;22.70;99.90
16511;DHT22;8368;48.772;8.754;2023-08-12T08:18:04;22.70;99.90
16511;DHT22;8368;48.772;8.754;2023-08-12T08:20:30;22.80;99.90
16511;DHT22;8368;48.772;8.754;2023-08-12T08:22:56;22.90;99.90
16511;DHT22;8368;48.772;8.754;2023-08-12T08:25:21;23.10;99.90
16511;DHT22;8368;48.772;8.754;2023-08-12T08:27:47;23.50;99.90
16511;DHT22;8368;48.772;8.754;2023-08-12T08:30:13;23.70;99.90
16511;DHT22;8368;48.772;8.754;2023-08-12T08:32:40;23.80;99.90
16511;DHT22;8368;48.772;8.754;2023-08-12T08:35:05;23.90;99.90
16511;DHT22;8368;48.772;8.754;2023-08-12T08:37:31;23.80;99.90
16511;DHT22;8368;48.772;8.754;2023-08-12T08:39:57;23.80;99.90
16511;DHT22;8368;48.772;8.754;2023-08-12T08:42:24;23.90;99.90
16511;DHT22;8368;48.772;8.754;2023-08-12T08:44:53;24.00;99.90
16511;DHT22;8368;48.772;8.754;2023-08-12T08:47:25;24.00;99.90
16511;DHT22;8368;48.772;8.754;2023-08-12T08:49:53;24.00;99.90
16511;DHT22;8368;48.772;8.754;2023-08-12T08:52:20;24.00;99.90
16511;DHT22;8368;48.772;8.754;2023-08-12T08:54:45;24.00;99.90
16511;DHT22;8368;48.772;8.754;2023-08-12T08:57:11;24.00;99.90
16511;DHT22;8368;48.772;8.754;2023-08-12T08:59:38;24.00;99.90
16511;DHT22;8368;48.772;8.754;2023-08-12T09:02:04;24.00;99.90
16511;DHT22;8368;48.772;8.754;2023-08-12T09:04:31;24.10;99.90
16511;DHT22;8368;48.772;8.754;2023-08-12T09:06:58;24.10;99.90
16511;DHT22;8368;48.772;8.754;2023-08-12T09:09:25;24.10;99.90
16511;DHT22;8368;48.772;8.754;2023-08-12T09:11:52;24.30;99.90
16511;DHT22;8368;48.772;8.754;2023-08-12T09:14:18;24.30;99.90
16511;DHT22;8368;48.772;8.754;2023-08-12T09:16:44;24.50;99.90
16511;DHT22;8368;48.772;8.754;2023-08-12T09:19:09;24.70;99.90
16511;DHT22;8368;48.772;8.754;2023-08-12T09:21:35;25.00;99.90
16511;DHT22;8368;48.772;8.754;2023-08-12T09:24:03;25.30;99.90
16511;DHT22;8368;48.772;8.754;2023-08-12T09:26:29;25.40;99.90
16511;DHT22;8368;48.772;8.754;2023-08-12T09:28:55;25.70;99.90
16511;DHT22;8368;48.772;8.754;2023-08-12T09:31:25;25.60;99.90
16511;DHT22;8368;48.772;8.754;2023-08-12T09:33:52;25.60;99.90
16511;DHT22;8368;48.772;8.754;2023-08-12T09:36:18;25.60;99.90
16511;DHT22;8368;48.772;8.754;2023-08-12T09:38:44;25.60;99.90
16511;DHT22;8368;48.772;8.754;2023-08-12T09:41:10;25.70;99.90
16511;DHT22;8368;48.772;8.754;2023-08-12T09:43:42;25.70;99.90
16511;DHT22;8368;48.772;8.754;2023-08-12T09:46:12;25.70;99.90
16511;DHT22;8368;48.772;8.754;2023-08-12T09:48:41;25.80;99.90
16511;DHT22;8368;48.772;8.754;2023-08-12T09:51:07;25.80;99.90
16511;DHT22;8368;48.772;8.754;2023-08-12T09:53:33;25.80;99.90
16511;DHT22;8368;48.772;8.754;2023-08-12T09:56:07;25.70;99.90
16511;DHT22;8368;48.772;8.754;2023-08-12T09:58:35;25.90;99.90
16511;DHT22;8368;48.772;8.754;2023-08-12T10:01:03;25.80;99.90
16511;DHT22;8368;48.772;8.754;2023-08-12T10:03:28;25.50;99.90
16511;DHT22;8368;48.772;8.754;2023-08-12T10:05:55;25.50;99.90
16511;DHT22;8368;48.772;8.754;2023-08-12T10:08:21;25.40;99.90
16511;DHT22;8368;48.772;8.754;2023-08-12T10:10:48;25.20;99.90
16511;DHT22;8368;48.772;8.754;2023-08-12T10:13:14;25.20;99.90
16511;DHT22;8368;48.772;8.754;2023-08-12T10:15:40;25.20;99.90
16511;DHT22;8368;48.772;8.754;2023-08-12T10:18:07;25.10;99.90
16511;DHT22;8368;48.772;8.754;2023-08-12T10:20:34;25.40;99.90
16511;DHT22;8368;48.772;8.754;2023-08-12T10:23:01;25.60;99.90
16511;DHT22;8368;48.772;8.754;2023-08-12T10:25:31;25.70;99.90
16511;DHT22;8368;48.772;8.754;2023-08-12T10:27:57;25.90;99.90
16511;DHT22;8368;48.772;8.754;2023-08-12T10:30:23;26.10;99.90
16511;DHT22;8368;48.772;8.754;2023-08-12T10:32:49;26.30;99.90
16511;DHT22;8368;48.772;8.754;2023-08-12T10:35:15;26.40;99.90
16511;DHT22;8368;48.772;8.754;2023-08-12T10:37:41;26.30;99.90
16511;DHT22;8368;48.772;8.754;2023-08-12T10:40:20;26.60;99.90
16511;DHT22;8368;48.772;8.754;2023-08-12T10:42:48;26.80;99.90
16511;DHT22;8368;48.772;8.754;2023-08-12T10:45:15;26.90;99.90
16511;DHT22;8368;48.772;8.754;2023-08-12T10:50:27;27.30;99.90
16511;DHT22;8368;48.772;8.754;2023-08-12T10:52:56;27.40;99.90
16511;DHT22;8368;48.772;8.754;2023-08-12T10:55:23;27.60;99.90
16511;DHT22;8368;48.772;8.754;2023-08-12T10:57:51;27.70;99.90
16511;DHT22;8368;48.772;8.754;2023-08-12T11:00:24;27.60;99.90
16511;DHT22;8368;48.772;8.754;2023-08-12T11:02:52;27.70;99.90
16511;DHT22;8368;48.772;8.754;2023-08-12T11:05:18;27.70;99.90
16511;DHT22;8368;48.772;8.754;2023-08-12T11:07:49;27.80;99.90
16511;DHT22;8368;48.772;8.754;2023-08-12T11:10:26;27.90;99.90
16511;DHT22;8368;48.772;8.754;2023-08-12T11:15:18;27.80;99.90
16511;DHT22;8368;48.772;8.754;2023-08-12T11:17:46;27.60;99.90
16511;DHT22;8368;48.772;8.754;2023-08-12T11:20:13;27.30;99.90
16511;DHT22;8368;48.772;8.754;2023-08-12T11:22:41;27.10;99.90
16511;DHT22;8368;48.772;8.754;2023-08-12T11:25:09;26.90;99.90
16511;DHT22;8368;48.772;8.754;2023-08-12T11:27:46;26.80;99.90
16511;DHT22;8368;48.772;8.754;2023-08-12T11:30:16;26.60;99.90
16511;DHT22;8368;48.772;8.754;2023-08-12T11:32:43;26.40;99.90
16511;DHT22;8368;48.772;8.754;2023-08-12T11:35:09;26.30;99.90
16511;DHT22;8368;48.772;8.754;2023-08-12T11:37:37;26.30;99.90
16511;DHT22;8368;48.772;8.754;2023-08-12T11:40:04;26.30;99.90
16511;DHT22;8368;48.772;8.754;2023-08-12T11:42:30;26.30;99.90
16511;DHT22;8368;48.772;8.754;2023-08-12T11:44:56;26.20;99.90
16511;DHT22;8368;48.772;8.754;2023-08-12T11:47:21;26.10;99.90
16511;DHT22;8368;48.772;8.754;2023-08-12T11:49:47;26.00;99.90
16511;DHT22;8368;48.772;8.754;2023-08-12T11:52:13;25.80;99.90
16511;DHT22;8368;48.772;8.754;2023-08-12T11:54:39;25.60;99.90
16511;DHT22;8368;48.772;8.754;2023-08-12T11:57:05;25.50;99.90
16511;DHT22;8368;48.772;8.754;2023-08-12T11:59:31;25.40;99.90
16511;DHT22;8368;48.772;8.754;2023-08-12T12:01:57;25.40;99.90
16511;DHT22;8368;48.772;8.754;2023-08-12T12:04:23;25.40;99.90
16511;DHT22;8368;48.772;8.754;2023-08-12T12:06:49;25.20;99.90
16511;DHT22;8368;48.772;8.754;2023-08-12T12:09:15;25.00;99.90
16511;DHT22;8368;48.772;8.754;2023-08-12T12:11:43;24.80;99.90
16511;DHT22;8368;48.772;8.754;2023-08-12T12:14:09;24.70;99.90
16511;DHT22;8368;48.772;8.754;2023-08-12T12:16:48;24.50;99.90
16511;DHT22;8368;48.772;8.754;2023-08-12T12:21:42;24.20;99.90
16511;DHT22;8368;48.772;8.754;2023-08-12T12:24:08;23.90;99.90
16511;DHT22;8368;48.772;8.754;2023-08-12T12:26:34;23.80;99.90
16511;DHT22;8368;48.772;8.754;2023-08-12T12:29:01;23.80;99.90
16511;DHT22;8368;48.772;8.754;2023-08-12T12:31:26;23.90;99.90
16511;DHT22;8368;48.772;8.754;2023-08-12T12:33:52;23.90;99.90
16511;DHT22;8368;48.772;8.754;2023-08-12T12:36:17;23.80;99.90
16511;DHT22;8368;48.772;8.754;2023-08-12T12:38:43;23.90;99.90
16511;DHT22;8368;48.772;8.754;2023-08-12T12:41:09;24.10;99.90
16511;DHT22;8368;48.772;8.754;2023-08-12T12:43:34;24.40;99.90
16511;DHT22;8368;48.772;8.754;2023-08-12T12:46:00;24.70;99.90
16511;DHT22;8368;48.772;8.754;2023-08-12T12:48:25;25.20;99.90
16511;DHT22;8368;48.772;8.754;2023-08-12T12:50:51;25.50;99.90
16511;DHT22;8368;48.772;8.754;2023-08-12T12:53:16;25.50;99.90
16511;DHT22;8368;48.772;8.754;2023-08-12T12:55:42;25.60;99.90
16511;DHT22;8368;48.772;8.754;2023-08-12T12:58:08;25.60;99.90
16511;DHT22;8368;48.772;8.754;2023-08-12T13:00:34;25.50;99.90
16511;DHT22;8368;48.772;8.754;2023-08-12T13:03:00;25.40;99.90
16511;DHT22;8368;48.772;8.754;2023-08-12T13:05:25;25.50;99.90
16511;DHT22;8368;48.772;8.754;2023-08-12T13:07:51;25.50;99.90
16511;DHT22;8368;48.772;8.754;2023-08-12T13:10:16;25.50;99.90
16511;DHT22;8368;48.772;8.754;2023-08-12T13:12:42;25.60;99.90
16511;DHT22;8368;48.772;8.754;2023-08-12T13:15:08;25.90;99.90
16511;DHT22;8368;48.772;8.754;2023-08-12T13:17:33;26.80;99.90
16511;DHT22;8368;48.772;8.754;2023-08-12T13:19:59;28.10;99.90
16511;DHT22;8368;48.772;8.754;2023-08-12T13:22:24;29.30;99.90
16511;DHT22;8368;48.772;8.754;2023-08-12T13:24:50;30.60;99.90
16511;DHT22;8368;48.772;8.754;2023-08-12T13:27:16;31.10;99.90
16511;DHT22;8368;48.772;8.754;2023-08-12T13:29:42;30.90;99.90
16511;DHT22;8368;48.772;8.754;2023-08-12T13:32:08;30.30;99.90
16511;DHT22;8368;48.772;8.754;2023-08-12T13:34:34;29.60;99.90
16511;DHT22;8368;48.772;8.754;2023-08-12T13:36:59;29.30;99.90
16511;DHT22;8368;48.772;8.754;2023-08-12T13:39:25;28.50;99.90
16511;DHT22;8368;48.772;8.754;2023-08-12T13:41:50;28.30;99.90
16511;DHT22;8368;48.772;8.754;2023-08-12T13:44:16;28.00;99.90
16511;DHT22;8368;48.772;8.754;2023-08-12T13:46:41;27.70;99.90
16511;DHT22;8368;48.772;8.754;2023-08-12T13:49:07;27.80;99.90
16511;DHT22;8368;48.772;8.754;2023-08-12T13:51:32;27.60;99.90
16511;DHT22;8368;48.772;8.754;2023-08-12T13:53:58;27.70;99.90
16511;DHT22;8368;48.772;8.754;2023-08-12T13:56:23;27.70;99.90
16511;DHT22;8368;48.772;8.754;2023-08-12T13:58:49;27.70;99.90
16511;DHT22;8368;48.772;8.754;2023-08-12T14:01:15;27.70;99.90
16511;DHT22;8368;48.772;8.754;2023-08-12T14:03:40;27.90;99.90
16511;DHT22;8368;48.772;8.754;2023-08-12T14:06:06;27.70;99.90
16511;DHT22;8368;48.772;8.754;2023-08-12T14:08:31;28.10;99.90
16511;DHT22;8368;48.772;8.754;2023-08-12T14:10:57;28.10;99.90
16511;DHT22;8368;48.772;8.754;2023-08-12T14:13:22;28.40;99.90
16511;DHT22;8368;48.772;8.754;2023-08-12T14:15:48;28.60;99.90
16511;DHT22;8368;48.772;8.754;2023-08-12T14:18:13;28.80;99.90
16511;DHT22;8368;48.772;8.754;2023-08-12T14:20:39;28.90;99.90
16511;DHT22;8368;48.772;8.754;2023-08-12T14:23:04;28.60;99.90
16511;DHT22;8368;48.772;8.754;2023-08-12T14:25:30;28.50;99.90
16511;DHT22;8368;48.772;8.754;2023-08-12T14:27:55;28.50;99.90
16511;DHT22;8368;48.772;8.754;2023-08-12T14:30:24;28.50;99.90
16511;DHT22;8368;48.772;8.754;2023-08-12T14:32:50;28.60;99.90
16511;DHT22;8368;48.772;8.754;2023-08-12T14:35:15;28.50;99.90
16511;DHT22;8368;48.772;8.754;2023-08-12T14:37:41;28.60;99.90
16511;DHT22;8368;48.772;8.754;2023-08-12T14:40:07;28.40;99.90
16511;DHT22;8368;48.772;8.754;2023-08-12T14:42:32;28.10;99.90
16511;DHT22;8368;48.772;8.754;2023-08-12T14:44:58;27.60;99.90
16511;DHT22;8368;48.772;8.754;2023-08-12T14:47:23;27.30;99.90
16511;DHT22;8368;48.772;8.754;2023-08-12T14:49:49;27.00;99.90
16511;DHT22;8368;48.772;8.754;2023-08-12T14:52:18;26.70;99.90
16511;DHT22;8368;48.772;8.754;2023-08-12T14:54:44;26.10;99.90
16511;DHT22;8368;48.772;8.754;2023-08-12T14:57:10;25.90;99.90
16511;DHT22;8368;48.772;8.754;2023-08-12T14:59:35;25.60;99.90
16511;DHT22;8368;48.772;8.754;2023-08-12T15:02:01;25.40;99.90
16511;DHT22;8368;48.772;8.754;2023-08-12T15:04:26;25.30;99.90
16511;DHT22;8368;48.772;8.754;2023-08-12T15:06:52;25.10;99.90
16511;DHT22;8368;48.772;8.754;2023-08-12T15:09:17;24.90;99.90
16511;DHT22;8368;48.772;8.754;2023-08-12T15:11:43;24.80;99.90
16511;DHT22;8368;48.772;8.754;2023-08-12T15:14:08;24.70;99.90
16511;DHT22;8368;48.772;8.754;2023-08-12T15:16:34;24.60;99.90
16511;DHT22;8368;48.772;8.754;2023-08-12T15:19:01;24.50;99.90
16511;DHT22;8368;48.772;8.754;2023-08-12T15:21:27;24.40;99.90
16511;DHT22;8368;48.772;8.754;2023-08-12T15:23:52;24.30;99.90
16511;DHT22;8368;48.772;8.754;2023-08-12T15:26:18;24.30;99.90
16511;DHT22;8368;48.772;8.754;2023-08-12T15:28:43;24.10;99.90
16511;DHT22;8368;48.772;8.754;2023-08-12T15:31:11;24.00;99.90
16511;DHT22;8368;48.772;8.754;2023-08-12T15:33:37;23.80;99.90
16511;DHT22;8368;48.772;8.754;2023-08-12T15:36:03;23.50;99.90
16511;DHT22;8368;48.772;8.754;2023-08-12T15:38:29;23.10;99.90
16511;DHT22;8368;48.772;8.754;2023-08-12T15:40:54;22.80;99.90
16511;DHT22;8368;48.772;8.754;2023-08-12T15:43:20;22.50;99.90
16511;DHT22;8368;48.772;8.754;2023-08-12T15:45:46;22.20;99.90
16511;DHT22;8368;48.772;8.754;2023-08-12T15:48:11;22.00;99.90
16511;DHT22;8368;48.772;8.754;2023-08-12T15:50:37;21.90;99.90